Startpagina
METAR-TAF:

METAR-TAF

Vliegvelden :

Aéroport de Lille-Lesquin

Rijsel, Frankrijk

breedte: 50-34N, lengte: 003-06E, hoogte: 48 m

Actueel weer

Dit bericht is 30 minuten geleden gemaakt, om 05:00 UTC
Wind 7 kt uit het noorden
Temperatuur -1°C
Vochtigheid 86%
Druk 1026 hPa
Zicht 10 km of meer
geen wolken onder 1500 m en geen cumulonimbus

METAR: LFQQ 070500Z AUTO 01007KT CAVOK M01/M03 Q1026 NOSIG

Tijdstip: 06:30 (05:30 UTC)

Verwachting

Dit bericht is 6 uur en het 30 minuten geleden gemaakt, om 23:00 UTC
Verwachting geldig van 07 om 00 UTC tot 08 om 06 UTC
Wind 8 kt uit het noordnoordoosten
Zicht 10 km of meer
geen wolken onder 1500 m en geen cumulonimbus

TAF: LFQQ 062300Z 0700/0806 03008KT CAVOK

Waarnemingen en weersverwachtingen van meer dan 4000 vliegvelden (METAR en TAF).

De beschikbare stations zijn de gele en rode punten op de kaart.

Ga met uw muis naar het station om de naam te zien.

Klik dan om waarnemingen en weersverwachtingen te zien.

kaart wijzigen: klik op de groene knoppen met een zwart kruis om in te zoomen, op de groene knop met een streepje om uit te zoomen of op de groene pijlen voor aangrenzende kaarten.


METAR-TAF: